• Join FlightAware (Why Join?)
  • Login
  • US Flag 
 
01:12PM EST


 

Airport Tracker/Info


-or-


 

Live Flight TrackerFlight Track Log ✈ LXJ542 ✈ 11-Nov-2013 ✈ KUDD - KSFO

Flight Track Log - Related Links

Times and Time Zones

All times are in EST time to prevent confusion due to time zone crossing. See the LXJ542 flight status page for this flight to view local times or setup timezone preferences in your user account.

Time Position Orientation Groundspeed Altitude Reporting Facility
EST Latitude Longitude Course Direction KTS MPH feet Rate Location/Type
06:00PM 33.7506 -116.3011 140° Southeast 153 176 40,000  Level Los Angeles Center
06:01PM 33.7117 -116.2619 140° Southeast 198 228 40,000 -15,480 Level Los Angeles Center
06:02PM 33.7061 -116.2128 98° East 174 200 8,100 -13,680 Descending Los Angeles Center
06:03PM 33.7658 -116.2294 347° North 264 304 11,500 2,640 Climbing Los Angeles Center
06:04PM 33.8403 -116.2933 325° Northwest 329 379 13,600 3,180 Climbing Los Angeles Center
06:05PM 33.9433 -116.3811 325° Northwest 376 433 18,100 3,840 Climbing Los Angeles Center
06:06PM 34.0286 -116.4544 325° Northwest 378 435 21,600 3,000 Climbing Los Angeles Center
06:07PM 34.1183 -116.5258 327° Northwest 389 448 24,300 2,700 Climbing Los Angeles Center
06:08PM 34.2244 -116.5669 342° North 401 461 27,300 2,580 Climbing Los Angeles Center
06:09PM 34.3089 -116.6447 323° Northwest 409 471 29,700 2,220 Climbing Los Angeles Center
06:10PM 34.3261 -116.7828 279° West 415 478 32,000 1,080 Climbing Los Angeles Center
06:11PM 34.3400 -116.9569 276° West 428 493 32,000  Level Los Angeles Center
06:12PM 34.3528 -117.1042 276° West 438 504 32,100 1,200 Climbing Los Angeles Center
06:13PM 34.3944 -117.2356 291° West 433 498 34,600 2,100 Climbing Los Angeles Center
06:14PM 34.4472 -117.3603 297° West 416 479 36,500 1,680 Climbing Los Angeles Center
06:16PM 34.5017 -117.4869 298° West 421 484 38,200 1,620 Climbing Los Angeles Center
06:17PM 34.5556 -117.6125 298° West 420 483 39,900 840 Climbing Los Angeles Center
06:18PM 34.6200 -117.7661 297° West 425 489 40,000  Climbing Los Angeles Center
06:19PM 34.6736 -117.8928 297° West 421 484 40,000  Level Los Angeles Center
06:20PM 34.7269 -118.0186 297° West 419 482 40,000  Level Los Angeles Center
06:21PM 34.7792 -118.1425 297° West 411 473 40,000  Level Los Angeles Center
06:22PM 34.8319 -118.2678 297° West 415 478 40,000  Level Los Angeles Center
06:23PM 34.8861 -118.3939 298° West 420 483 40,000  Level Los Angeles Center
06:24PM 34.9414 -118.5236 297° West 411 473 40,000  Level Los Angeles Center
06:25PM 34.9914 -118.6522 295° West 421 484 40,000  Level Los Angeles Center
06:26PM 35.0450 -118.7767 298° West 418 481 40,000  Level Los Angeles Center
06:27PM 35.1081 -118.9281 297° West 418 481 40,000  Level Los Angeles Center
06:28PM 35.1600 -119.0528 297° West 414 476 40,000  Level Los Angeles Center
06:29PM 35.2122 -119.1797 297° West 416 479 40,000  Level Los Angeles Center
06:30PM 35.2639 -119.3067 297° West 420 483 40,000  Level Los Angeles Center
06:31PM 35.3167 -119.4339 297° West 422 486 40,000  Level Los Angeles Center
06:32PM 35.3783 -119.5861 296° West 420 483 40,000  Level Los Angeles Center
06:33PM 35.4297 -119.7136 296° West 421 484 40,000  Level Los Angeles Center
06:34PM 35.4797 -119.8400 296° West 415 478 40,000  Level Los Angeles Center
06:35PM 35.5306 -119.9661 296° West 415 478 40,000  Level Los Angeles Center
06:36PM 35.5819 -120.0936 296° West 420 483 40,000  Level Los Angeles Center
06:37PM 35.6400 -120.2408 296° West 419 482 40,000  Level Los Angeles Center
06:38PM 35.6722 -120.3228 296° West 421 484 40,000  Level Oakland Center
06:39PM 35.7214 -120.4497 296° West 419 482 40,000  Level Oakland Center
06:40PM 35.7728 -120.5767 297° West 419 482 40,000  Level Oakland Center
06:41PM 35.8492 -120.6864 311° West 423 487 40,000  Level Oakland Center
06:42PM 35.9261 -120.7958 311° West 424 488 40,000  Level Oakland Center
06:43PM 36.0206 -120.9250 312° West 424 488 40,000 -600 Level Oakland Center
06:44PM 36.0978 -121.0347 311° West 425 489 38,900 -1,860 Descending Oakland Center
06:45PM 36.1750 -121.1447 311° West 425 489 36,300 -2,520 Descending Oakland Center
06:46PM 36.2531 -121.2522 312° West 421 484 33,800 -2,460 Descending Oakland Center
06:47PM 36.3297 -121.3617 311° West 420 483 31,300 -2,580 Descending Oakland Center
06:48PM 36.4114 -121.4783 311° West 445 512 28,600 -2,700 Descending Oakland Center
06:49PM 36.4961 -121.5975 312° West 460 529 25,900 -2,640 Descending Oakland Center
06:50PM 36.5761 -121.7147 310° West 448 516 23,300 -2,580 Descending Oakland Center
06:51PM 36.6561 -121.8308 311° West 428 493 20,700 -2,520 Descending Oakland Center
06:52PM 36.7283 -121.9381 310° West 406 467 18,200 -2,220 Descending Oakland Center
06:53PM 36.8311 -121.9878 339° North 407 468 16,300 -1,920 Descending Oakland Center
06:54PM 36.9372 -122.0167 348° North 395 455 14,300 -1,980 Descending Oakland Center
06:55PM 37.0408 -122.0436 348° North 384 442 12,300 -1,920 Descending Oakland Center
06:56PM 37.1481 -122.0758 347° North 333 383 10,400 -1,620 Descending Oakland Center
06:57PM 37.1958 -122.1539 308° West 281 323 9,000 -1,320 Descending Oakland Center
06:58PM 37.2469 -122.2133 317° Northwest 256 295 7,800 -1,320 Descending Oakland Center
06:59PM 37.3167 -122.2075 North 274 315 6,400 -900 Descending Oakland Center
07:00PM 37.3689 -122.1494 41° Northeast 255 293 6,000 -840 Descending Oakland Center
07:01PM 37.4203 -122.0931 41° Northeast 248 285 4,700 -1,020 Descending Oakland Center
07:02PM 37.4850 -122.1022 354° North 244 281 4,000 -540 Descending Oakland Center
07:03PM 37.5275 -122.1519 317° Northwest 222 255 3,700 -720 Descending Oakland Center
07:04PM 37.5511 -122.2142 296° West 208 239 2,600 -1,020 Descending Oakland Center
07:05PM 37.5739 -122.2656 299° West 186 214 1,700 -900 Descending Oakland Center
07:06PM 37.5953 -122.3161 298° West 153 176 800 -780 Descending Oakland Center
07:07PM 37.6114 -122.3536 298° West 136 157 200 -600 Descending Oakland Center
07:09PM 37.6167 -122.3667 322° Northwest  Level FlightAware Approximate
07:16PM 37.6191 -122.3752 322° Northwest  Level Estimated
07:17PM 37.6167 -122.3667 322° Northwest  Level FlightAware Approximate